sensor_id;sensor_type;location;lat;lon;timestamp;temperature;humidity
73133;DHT22;61320;52.008;4.530;2023-03-17T00:00:19;11.62;56.54
73133;DHT22;61320;52.008;4.530;2023-03-17T00:02:50;11.59;56.58
73133;DHT22;61320;52.008;4.530;2023-03-17T00:05:23;11.52;56.91
73133;DHT22;61320;52.008;4.530;2023-03-17T00:08:14;11.56;57.54
73133;DHT22;61320;52.008;4.530;2023-03-17T00:10:42;11.54;57.07
73133;DHT22;61320;52.008;4.530;2023-03-17T00:13:10;11.54;56.93
73133;DHT22;61320;52.008;4.530;2023-03-17T00:15:36;11.44;57.21
73133;DHT22;61320;52.008;4.530;2023-03-17T00:25:26;11.43;57.39
73133;DHT22;61320;52.008;4.530;2023-03-17T00:28:28;11.42;57.52
73133;DHT22;61320;52.008;4.530;2023-03-17T00:34:42;11.40;57.47
73133;DHT22;61320;52.008;4.530;2023-03-17T00:37:12;11.42;57.48
73133;DHT22;61320;52.008;4.530;2023-03-17T00:39:38;11.36;57.60
73133;DHT22;61320;52.008;4.530;2023-03-17T00:42:07;11.37;57.67
73133;DHT22;61320;52.008;4.530;2023-03-17T00:44:33;11.37;57.87
73133;DHT22;61320;52.008;4.530;2023-03-17T00:46:59;11.39;57.81
73133;DHT22;61320;52.008;4.530;2023-03-17T00:49:27;11.43;58.54
73133;DHT22;61320;52.008;4.530;2023-03-17T00:51:52;11.44;58.06
73133;DHT22;61320;52.008;4.530;2023-03-17T00:54:19;11.46;58.69
73133;DHT22;61320;52.008;4.530;2023-03-17T00:56:46;11.46;58.30
73133;DHT22;61320;52.008;4.530;2023-03-17T01:01:47;11.47;58.39
73133;DHT22;61320;52.008;4.530;2023-03-17T01:04:33;11.46;58.66
73133;DHT22;61320;52.008;4.530;2023-03-17T01:07:50;11.47;58.94
73133;DHT22;61320;52.008;4.530;2023-03-17T01:14:20;11.37;58.66
73133;DHT22;61320;52.008;4.530;2023-03-17T01:17:15;11.35;58.85
73133;DHT22;61320;52.008;4.530;2023-03-17T01:19:47;11.35;58.86
73133;DHT22;61320;52.008;4.530;2023-03-17T01:22:13;11.26;59.30
73133;DHT22;61320;52.008;4.530;2023-03-17T01:24:42;11.23;59.12
73133;DHT22;61320;52.008;4.530;2023-03-17T01:27:11;11.18;59.01
73133;DHT22;61320;52.008;4.530;2023-03-17T01:29:37;11.13;59.47
73133;DHT22;61320;52.008;4.530;2023-03-17T01:32:03;11.19;59.11
73133;DHT22;61320;52.008;4.530;2023-03-17T01:34:28;11.16;59.63
73133;DHT22;61320;52.008;4.530;2023-03-17T01:36:58;11.18;59.04
73133;DHT22;61320;52.008;4.530;2023-03-17T01:39:24;11.11;59.11
73133;DHT22;61320;52.008;4.530;2023-03-17T01:41:53;11.09;59.43
73133;DHT22;61320;52.008;4.530;2023-03-17T01:44:21;11.12;59.27
73133;DHT22;61320;52.008;4.530;2023-03-17T01:46:47;11.15;59.30
73133;DHT22;61320;52.008;4.530;2023-03-17T01:57:09;11.26;58.70
73133;DHT22;61320;52.008;4.530;2023-03-17T01:59:45;11.23;58.95
73133;DHT22;61320;52.008;4.530;2023-03-17T02:02:22;11.19;58.72
73133;DHT22;61320;52.008;4.530;2023-03-17T02:04:51;11.18;59.10
73133;DHT22;61320;52.008;4.530;2023-03-17T02:07:23;11.29;58.89
73133;DHT22;61320;52.008;4.530;2023-03-17T02:09:51;11.27;59.14
73133;DHT22;61320;52.008;4.530;2023-03-17T02:12:39;11.37;58.61
73133;DHT22;61320;52.008;4.530;2023-03-17T02:15:10;11.36;58.68
73133;DHT22;61320;52.008;4.530;2023-03-17T02:17:43;11.33;58.38
73133;DHT22;61320;52.008;4.530;2023-03-17T02:22:41;11.32;58.81
73133;DHT22;61320;52.008;4.530;2023-03-17T02:25:07;11.37;58.59
73133;DHT22;61320;52.008;4.530;2023-03-17T02:27:38;11.35;58.55
73133;DHT22;61320;52.008;4.530;2023-03-17T02:30:07;11.40;58.48
73133;DHT22;61320;52.008;4.530;2023-03-17T02:32:36;11.37;58.39
73133;DHT22;61320;52.008;4.530;2023-03-17T02:35:06;11.37;58.26
73133;DHT22;61320;52.008;4.530;2023-03-17T02:37:33;11.35;58.40
73133;DHT22;61320;52.008;4.530;2023-03-17T02:39:59;11.36;58.09
73133;DHT22;61320;52.008;4.530;2023-03-17T02:42:32;11.32;58.27
73133;DHT22;61320;52.008;4.530;2023-03-17T02:44:58;11.32;58.22
73133;DHT22;61320;52.008;4.530;2023-03-17T02:47:27;11.37;58.06
73133;DHT22;61320;52.008;4.530;2023-03-17T02:49:53;11.33;58.12
73133;DHT22;61320;52.008;4.530;2023-03-17T02:52:19;11.35;58.22
73133;DHT22;61320;52.008;4.530;2023-03-17T02:54:47;11.35;58.13
73133;DHT22;61320;52.008;4.530;2023-03-17T02:57:13;11.39;57.94
73133;DHT22;61320;52.008;4.530;2023-03-17T02:59:38;11.37;57.96
73133;DHT22;61320;52.008;4.530;2023-03-17T03:02:04;11.37;57.83
73133;DHT22;61320;52.008;4.530;2023-03-17T03:04:30;11.37;57.66
73133;DHT22;61320;52.008;4.530;2023-03-17T03:06:57;11.40;58.16
73133;DHT22;61320;52.008;4.530;2023-03-17T03:09:25;11.47;57.51
73133;DHT22;61320;52.008;4.530;2023-03-17T03:11:50;11.44;57.38
73133;DHT22;61320;52.008;4.530;2023-03-17T03:14:18;11.39;57.58
73133;DHT22;61320;52.008;4.530;2023-03-17T03:16:45;11.43;57.50
73133;DHT22;61320;52.008;4.530;2023-03-17T03:19:11;11.42;57.74
73133;DHT22;61320;52.008;4.530;2023-03-17T03:21:36;11.50;57.38
73133;DHT22;61320;52.008;4.530;2023-03-17T03:24:03;11.44;57.48
73133;DHT22;61320;52.008;4.530;2023-03-17T03:26:29;11.44;57.38
73133;DHT22;61320;52.008;4.530;2023-03-17T03:28:54;11.46;57.81
73133;DHT22;61320;52.008;4.530;2023-03-17T03:31:21;11.50;57.55
73133;DHT22;61320;52.008;4.530;2023-03-17T03:33:47;11.53;57.37
73133;DHT22;61320;52.008;4.530;2023-03-17T03:36:13;11.53;57.49
73133;DHT22;61320;52.008;4.530;2023-03-17T03:38:39;11.52;57.67
73133;DHT22;61320;52.008;4.530;2023-03-17T03:41:06;11.52;57.54
73133;DHT22;61320;52.008;4.530;2023-03-17T03:43:33;11.50;57.80
73133;DHT22;61320;52.008;4.530;2023-03-17T03:45:59;11.53;57.55
73133;DHT22;61320;52.008;4.530;2023-03-17T03:48:25;11.50;57.63
73133;DHT22;61320;52.008;4.530;2023-03-17T03:50:55;11.49;57.85
73133;DHT22;61320;52.008;4.530;2023-03-17T03:53:22;11.54;57.75
73133;DHT22;61320;52.008;4.530;2023-03-17T03:55:47;11.49;57.85
73133;DHT22;61320;52.008;4.530;2023-03-17T03:58:13;11.49;57.87
73133;DHT22;61320;52.008;4.530;2023-03-17T04:00:38;11.47;57.87
73133;DHT22;61320;52.008;4.530;2023-03-17T04:03:04;11.44;57.80
73133;DHT22;61320;52.008;4.530;2023-03-17T04:05:29;11.42;57.95
73133;DHT22;61320;52.008;4.530;2023-03-17T04:07:55;11.43;57.86
73133;DHT22;61320;52.008;4.530;2023-03-17T04:10:21;11.49;57.97
73133;DHT22;61320;52.008;4.530;2023-03-17T04:12:47;11.46;58.05
73133;DHT22;61320;52.008;4.530;2023-03-17T04:15:15;11.49;58.21
73133;DHT22;61320;52.008;4.530;2023-03-17T04:17:42;11.53;57.96
73133;DHT22;61320;52.008;4.530;2023-03-17T04:20:08;11.50;58.31
73133;DHT22;61320;52.008;4.530;2023-03-17T04:22:34;11.47;58.17
73133;DHT22;61320;52.008;4.530;2023-03-17T04:25:00;11.49;58.12
73133;DHT22;61320;52.008;4.530;2023-03-17T04:27:25;11.46;58.30
73133;DHT22;61320;52.008;4.530;2023-03-17T04:29:51;11.53;58.06
73133;DHT22;61320;52.008;4.530;2023-03-17T04:32:17;11.54;58.09
73133;DHT22;61320;52.008;4.530;2023-03-17T04:34:42;11.54;58.11
73133;DHT22;61320;52.008;4.530;2023-03-17T04:37:09;11.57;58.33
73133;DHT22;61320;52.008;4.530;2023-03-17T04:39:35;11.60;58.64
73133;DHT22;61320;52.008;4.530;2023-03-17T04:42:01;11.66;58.12
73133;DHT22;61320;52.008;4.530;2023-03-17T04:44:27;11.64;57.79
73133;DHT22;61320;52.008;4.530;2023-03-17T04:46:52;11.69;57.68
73133;DHT22;61320;52.008;4.530;2023-03-17T04:49:18;11.70;57.73
73133;DHT22;61320;52.008;4.530;2023-03-17T04:51:43;11.69;57.70
73133;DHT22;61320;52.008;4.530;2023-03-17T04:54:11;11.67;57.80
73133;DHT22;61320;52.008;4.530;2023-03-17T04:56:37;11.69;57.39
73133;DHT22;61320;52.008;4.530;2023-03-17T04:59:02;11.69;57.90
73133;DHT22;61320;52.008;4.530;2023-03-17T05:05:06;11.74;58.10
73133;DHT22;61320;52.008;4.530;2023-03-17T05:07:39;11.78;57.83
73133;DHT22;61320;52.008;4.530;2023-03-17T05:10:13;11.77;57.69
73133;DHT22;61320;52.008;4.530;2023-03-17T05:12:39;11.77;58.34
73133;DHT22;61320;52.008;4.530;2023-03-17T05:15:08;11.78;58.30
73133;DHT22;61320;52.008;4.530;2023-03-17T05:17:39;11.78;57.96
73133;DHT22;61320;52.008;4.530;2023-03-17T05:20:14;11.83;58.39
73133;DHT22;61320;52.008;4.530;2023-03-17T05:22:42;11.81;57.72
73133;DHT22;61320;52.008;4.530;2023-03-17T05:25:08;11.73;57.57
73133;DHT22;61320;52.008;4.530;2023-03-17T05:27:33;11.64;58.11
73133;DHT22;61320;52.008;4.530;2023-03-17T05:29:59;11.64;57.95
73133;DHT22;61320;52.008;4.530;2023-03-17T05:32:25;11.57;57.70
73133;DHT22;61320;52.008;4.530;2023-03-17T05:34:50;11.47;58.36
73133;DHT22;61320;52.008;4.530;2023-03-17T05:37:16;11.47;58.38
73133;DHT22;61320;52.008;4.530;2023-03-17T05:39:41;11.46;58.60
73133;DHT22;61320;52.008;4.530;2023-03-17T05:42:08;11.53;58.31
73133;DHT22;61320;52.008;4.530;2023-03-17T05:44:34;11.52;58.90
73133;DHT22;61320;52.008;4.530;2023-03-17T05:47:05;11.49;59.12
73133;DHT22;61320;52.008;4.530;2023-03-17T05:49:32;11.56;59.04
73133;DHT22;61320;52.008;4.530;2023-03-17T05:51:57;11.54;58.58
73133;DHT22;61320;52.008;4.530;2023-03-17T05:54:23;11.52;58.76
73133;DHT22;61320;52.008;4.530;2023-03-17T05:56:52;11.54;58.92
73133;DHT22;61320;52.008;4.530;2023-03-17T05:59:17;11.50;59.28
73133;DHT22;61320;52.008;4.530;2023-03-17T06:01:43;11.57;58.91
73133;DHT22;61320;52.008;4.530;2023-03-17T06:04:10;11.53;58.94
73133;DHT22;61320;52.008;4.530;2023-03-17T06:06:36;11.50;59.12
73133;DHT22;61320;52.008;4.530;2023-03-17T06:09:01;11.46;59.02
73133;DHT22;61320;52.008;4.530;2023-03-17T06:11:27;11.43;59.08
73133;DHT22;61320;52.008;4.530;2023-03-17T06:13:52;11.40;58.81
73133;DHT22;61320;52.008;4.530;2023-03-17T06:16:18;11.36;59.25
73133;DHT22;61320;52.008;4.530;2023-03-17T06:18:44;11.35;59.37
73133;DHT22;61320;52.008;4.530;2023-03-17T06:21:11;11.36;59.44
73133;DHT22;61320;52.008;4.530;2023-03-17T06:23:37;11.32;59.16
73133;DHT22;61320;52.008;4.530;2023-03-17T06:26:05;11.32;59.29
73133;DHT22;61320;52.008;4.530;2023-03-17T06:28:31;11.30;59.72
73133;DHT22;61320;52.008;4.530;2023-03-17T06:30:57;11.32;59.59
73133;DHT22;61320;52.008;4.530;2023-03-17T06:33:23;11.32;59.76
73133;DHT22;61320;52.008;4.530;2023-03-17T06:35:49;11.30;59.69
73133;DHT22;61320;52.008;4.530;2023-03-17T06:38:16;11.32;59.88
73133;DHT22;61320;52.008;4.530;2023-03-17T06:40:41;11.35;59.61
73133;DHT22;61320;52.008;4.530;2023-03-17T06:43:07;11.39;59.57
73133;DHT22;61320;52.008;4.530;2023-03-17T06:45:32;11.40;59.39
73133;DHT22;61320;52.008;4.530;2023-03-17T06:47:58;11.39;59.30
73133;DHT22;61320;52.008;4.530;2023-03-17T06:50:24;11.40;59.42
73133;DHT22;61320;52.008;4.530;2023-03-17T06:52:50;11.43;59.39
73133;DHT22;61320;52.008;4.530;2023-03-17T06:55:16;11.44;59.49
73133;DHT22;61320;52.008;4.530;2023-03-17T06:57:42;11.47;59.46
73133;DHT22;61320;52.008;4.530;2023-03-17T07:00:08;11.54;59.19
73133;DHT22;61320;52.008;4.530;2023-03-17T07:02:34;11.53;59.51
73133;DHT22;61320;52.008;4.530;2023-03-17T07:05:00;11.59;59.15
73133;DHT22;61320;52.008;4.530;2023-03-17T07:07:26;11.56;59.34
73133;DHT22;61320;52.008;4.530;2023-03-17T07:09:52;11.57;59.30
73133;DHT22;61320;52.008;4.530;2023-03-17T07:12:18;11.56;59.52
73133;DHT22;61320;52.008;4.530;2023-03-17T07:14:44;11.60;59.56
73133;DHT22;61320;52.008;4.530;2023-03-17T07:17:12;11.70;59.20
73133;DHT22;61320;52.008;4.530;2023-03-17T07:19:37;11.71;58.93
73133;DHT22;61320;52.008;4.530;2023-03-17T07:22:03;11.74;59.14
73133;DHT22;61320;52.008;4.530;2023-03-17T07:24:28;11.84;58.99
73133;DHT22;61320;52.008;4.530;2023-03-17T07:26:54;11.93;59.15
73133;DHT22;61320;52.008;4.530;2023-03-17T07:29:19;12.02;57.96
73133;DHT22;61320;52.008;4.530;2023-03-17T07:31:46;12.08;57.76
73133;DHT22;61320;52.008;4.530;2023-03-17T07:34:12;12.06;57.76
73133;DHT22;61320;52.008;4.530;2023-03-17T07:36:38;12.06;58.46
73133;DHT22;61320;52.008;4.530;2023-03-17T07:39:04;12.12;58.38
73133;DHT22;61320;52.008;4.530;2023-03-17T07:41:29;12.24;58.36
73133;DHT22;61320;52.008;4.530;2023-03-17T07:43:55;12.31;57.96
73133;DHT22;61320;52.008;4.530;2023-03-17T07:46:22;12.38;57.80
73133;DHT22;61320;52.008;4.530;2023-03-17T07:48:48;12.41;57.88
73133;DHT22;61320;52.008;4.530;2023-03-17T07:51:18;12.45;57.30
73133;DHT22;61320;52.008;4.530;2023-03-17T07:53:45;12.45;57.23
73133;DHT22;61320;52.008;4.530;2023-03-17T07:56:12;12.41;57.93
73133;DHT22;61320;52.008;4.530;2023-03-17T07:58:37;12.49;58.15
73133;DHT22;61320;52.008;4.530;2023-03-17T08:01:04;12.59;57.87
73133;DHT22;61320;52.008;4.530;2023-03-17T08:03:31;12.57;57.20
73133;DHT22;61320;52.008;4.530;2023-03-17T08:05:56;12.57;57.89
73133;DHT22;61320;52.008;4.530;2023-03-17T08:08:24;12.67;57.06
73133;DHT22;61320;52.008;4.530;2023-03-17T08:10:51;12.67;57.45
73133;DHT22;61320;52.008;4.530;2023-03-17T08:13:17;12.70;56.93
73133;DHT22;61320;52.008;4.530;2023-03-17T08:15:43;12.70;57.18
73133;DHT22;61320;52.008;4.530;2023-03-17T08:18:09;12.79;57.35
73133;DHT22;61320;52.008;4.530;2023-03-17T08:20:35;12.86;57.48
73133;DHT22;61320;52.008;4.530;2023-03-17T08:23:04;12.90;57.07
73133;DHT22;61320;52.008;4.530;2023-03-17T08:25:29;13.03;57.03
73133;DHT22;61320;52.008;4.530;2023-03-17T08:27:55;13.06;56.94
73133;DHT22;61320;52.008;4.530;2023-03-17T08:30:21;13.15;56.53
73133;DHT22;61320;52.008;4.530;2023-03-17T08:32:47;13.24;56.58
73133;DHT22;61320;52.008;4.530;2023-03-17T08:35:14;13.31;56.56
73133;DHT22;61320;52.008;4.530;2023-03-17T08:37:44;13.44;56.13
73133;DHT22;61320;52.008;4.530;2023-03-17T08:40:13;13.52;56.28
73133;DHT22;61320;52.008;4.530;2023-03-17T08:42:45;13.55;55.13
73133;DHT22;61320;52.008;4.530;2023-03-17T08:45:13;13.62;55.67
73133;DHT22;61320;52.008;4.530;2023-03-17T08:47:39;13.73;55.78
73133;DHT22;61320;52.008;4.530;2023-03-17T08:50:10;13.85;55.17
73133;DHT22;61320;52.008;4.530;2023-03-17T08:52:38;13.91;55.27
73133;DHT22;61320;52.008;4.530;2023-03-17T08:55:04;13.98;54.77
73133;DHT22;61320;52.008;4.530;2023-03-17T08:57:30;14.09;54.61
73133;DHT22;61320;52.008;4.530;2023-03-17T08:59:56;14.13;54.19
73133;DHT22;61320;52.008;4.530;2023-03-17T09:02:21;14.27;54.38
73133;DHT22;61320;52.008;4.530;2023-03-17T09:04:47;14.40;54.27
73133;DHT22;61320;52.008;4.530;2023-03-17T09:07:13;14.44;54.50
73133;DHT22;61320;52.008;4.530;2023-03-17T09:09:39;14.52;53.28
73133;DHT22;61320;52.008;4.530;2023-03-17T09:12:06;14.65;53.99
73133;DHT22;61320;52.008;4.530;2023-03-17T09:14:34;14.81;53.38
73133;DHT22;61320;52.008;4.530;2023-03-17T09:17:00;14.82;53.01
73133;DHT22;61320;52.008;4.530;2023-03-17T09:19:26;14.89;53.16
73133;DHT22;61320;52.008;4.530;2023-03-17T09:21:52;14.96;52.82
73133;DHT22;61320;52.008;4.530;2023-03-17T09:24:19;15.15;52.46
73133;DHT22;61320;52.008;4.530;2023-03-17T09:26:45;15.30;52.35
73133;DHT22;61320;52.008;4.530;2023-03-17T09:29:11;15.54;51.52
73133;DHT22;61320;52.008;4.530;2023-03-17T09:31:37;15.51;51.43
73133;DHT22;61320;52.008;4.530;2023-03-17T09:34:04;15.40;52.40
73133;DHT22;61320;52.008;4.530;2023-03-17T09:36:31;15.37;52.35
73133;DHT22;61320;52.008;4.530;2023-03-17T09:38:58;15.30;52.23
73133;DHT22;61320;52.008;4.530;2023-03-17T09:52:15;15.56;52.16
73133;DHT22;61320;52.008;4.530;2023-03-17T09:54:44;15.56;51.91
73133;DHT22;61320;52.008;4.530;2023-03-17T09:57:34;15.60;52.04
73133;DHT22;61320;52.008;4.530;2023-03-17T10:00:12;15.60;51.70
73133;DHT22;61320;52.008;4.530;2023-03-17T10:02:40;15.57;52.08
73133;DHT22;61320;52.008;4.530;2023-03-17T10:16:41;16.38;50.68
73133;DHT22;61320;52.008;4.530;2023-03-17T10:19:22;16.35;51.27
73133;DHT22;61320;52.008;4.530;2023-03-17T10:22:05;16.35;51.48
73133;DHT22;61320;52.008;4.530;2023-03-17T10:24:42;16.41;51.44
73133;DHT22;61320;52.008;4.530;2023-03-17T10:27:13;16.69;51.74
73133;DHT22;61320;52.008;4.530;2023-03-17T10:29:40;16.95;50.83
73133;DHT22;61320;52.008;4.530;2023-03-17T10:32:11;16.94;50.35
73133;DHT22;61320;52.008;4.530;2023-03-17T10:34:39;16.93;49.74
73133;DHT22;61320;52.008;4.530;2023-03-17T10:37:18;16.80;51.27
73133;DHT22;61320;52.008;4.530;2023-03-17T10:39:47;16.76;51.12
73133;DHT22;61320;52.008;4.530;2023-03-17T10:42:27;16.73;51.71
73133;DHT22;61320;52.008;4.530;2023-03-17T10:44:56;16.69;51.66
73133;DHT22;61320;52.008;4.530;2023-03-17T10:47:43;16.70;52.02
73133;DHT22;61320;52.008;4.530;2023-03-17T10:52:52;16.67;52.06
73133;DHT22;61320;52.008;4.530;2023-03-17T10:55:22;16.74;52.21
73133;DHT22;61320;52.008;4.530;2023-03-17T10:58:17;16.72;52.55
73133;DHT22;61320;52.008;4.530;2023-03-17T11:01:07;16.80;52.51
73133;DHT22;61320;52.008;4.530;2023-03-17T11:03:38;16.97;52.68
73133;DHT22;61320;52.008;4.530;2023-03-17T11:06:12;16.93;51.84
73133;DHT22;61320;52.008;4.530;2023-03-17T11:08:46;16.85;52.21
73133;DHT22;61320;52.008;4.530;2023-03-17T11:14:28;16.69;52.74
73133;DHT22;61320;52.008;4.530;2023-03-17T11:16:58;16.60;53.05
73133;DHT22;61320;52.008;4.530;2023-03-17T11:22:36;16.67;52.19
73133;DHT22;61320;52.008;4.530;2023-03-17T11:25:17;16.84;53.39
73133;DHT22;61320;52.008;4.530;2023-03-17T11:30:57;16.95;54.80
73133;DHT22;61320;52.008;4.530;2023-03-17T11:36:19;17.10;55.40
73133;DHT22;61320;52.008;4.530;2023-03-17T11:38:59;17.08;54.94
73133;DHT22;61320;52.008;4.530;2023-03-17T11:41:48;17.06;56.34
73133;DHT22;61320;52.008;4.530;2023-03-17T11:49:39;17.63;54.55
73133;DHT22;61320;52.008;4.530;2023-03-17T11:54:48;17.78;52.20
73133;DHT22;61320;52.008;4.530;2023-03-17T11:57:28;17.80;52.44
73133;DHT22;61320;52.008;4.530;2023-03-17T12:03:24;17.96;52.03
73133;DHT22;61320;52.008;4.530;2023-03-17T12:05:57;18.10;51.85
73133;DHT22;61320;52.008;4.530;2023-03-17T12:08:44;18.16;51.11
73133;DHT22;61320;52.008;4.530;2023-03-17T12:11:15;18.31;51.50
73133;DHT22;61320;52.008;4.530;2023-03-17T12:16:16;18.37;50.52
73133;DHT22;61320;52.008;4.530;2023-03-17T12:21:54;18.44;50.61
73133;DHT22;61320;52.008;4.530;2023-03-17T12:24:31;18.45;50.73
73133;DHT22;61320;52.008;4.530;2023-03-17T12:27:06;18.44;50.58
73133;DHT22;61320;52.008;4.530;2023-03-17T12:32:23;18.14;51.58
73133;DHT22;61320;52.008;4.530;2023-03-17T12:34:56;18.17;52.35
73133;DHT22;61320;52.008;4.530;2023-03-17T12:37:25;18.17;51.15
73133;DHT22;61320;52.008;4.530;2023-03-17T12:40:16;18.04;50.87
73133;DHT22;61320;52.008;4.530;2023-03-17T12:43:17;17.97;51.97
73133;DHT22;61320;52.008;4.530;2023-03-17T12:52:15;18.00;52.21
73133;DHT22;61320;52.008;4.530;2023-03-17T12:54:49;18.01;51.49
73133;DHT22;61320;52.008;4.530;2023-03-17T12:57:25;18.03;51.39
73133;DHT22;61320;52.008;4.530;2023-03-17T13:00:15;18.10;51.88
73133;DHT22;61320;52.008;4.530;2023-03-17T13:02:48;18.10;52.45
73133;DHT22;61320;52.008;4.530;2023-03-17T13:05:16;18.13;52.14
73133;DHT22;61320;52.008;4.530;2023-03-17T13:07:51;17.93;52.64
73133;DHT22;61320;52.008;4.530;2023-03-17T13:10:38;17.85;52.70
73133;DHT22;61320;52.008;4.530;2023-03-17T13:13:21;17.76;52.85
73133;DHT22;61320;52.008;4.530;2023-03-17T13:15:54;17.66;53.43
73133;DHT22;61320;52.008;4.530;2023-03-17T13:18:29;17.65;53.56
73133;DHT22;61320;52.008;4.530;2023-03-17T13:21:11;17.51;53.45
73133;DHT22;61320;52.008;4.530;2023-03-17T13:23:44;17.42;53.80
73133;DHT22;61320;52.008;4.530;2023-03-17T13:26:14;17.43;54.04
73133;DHT22;61320;52.008;4.530;2023-03-17T13:28:45;17.42;53.64
73133;DHT22;61320;52.008;4.530;2023-03-17T13:31:32;17.46;53.79
73133;DHT22;61320;52.008;4.530;2023-03-17T13:34:11;17.52;53.36
73133;DHT22;61320;52.008;4.530;2023-03-17T13:39:33;17.62;53.45
73133;DHT22;61320;52.008;4.530;2023-03-17T13:45:39;17.69;53.58
73133;DHT22;61320;52.008;4.530;2023-03-17T13:50:56;18.01;53.11
73133;DHT22;61320;52.008;4.530;2023-03-17T13:53:27;18.16;53.19
73133;DHT22;61320;52.008;4.530;2023-03-17T13:56:16;18.24;52.33
73133;DHT22;61320;52.008;4.530;2023-03-17T14:01:42;18.47;51.34
73133;DHT22;61320;52.008;4.530;2023-03-17T14:04:20;18.50;51.40
73133;DHT22;61320;52.008;4.530;2023-03-17T14:06:49;18.58;52.85
73133;DHT22;61320;52.008;4.530;2023-03-17T14:09:35;18.78;50.22
73133;DHT22;61320;52.008;4.530;2023-03-17T14:12:12;18.84;50.65
73133;DHT22;61320;52.008;4.530;2023-03-17T14:14:48;18.88;51.21
73133;DHT22;61320;52.008;4.530;2023-03-17T14:17:28;18.91;50.66
73133;DHT22;61320;52.008;4.530;2023-03-17T14:20:06;18.92;50.49
73133;DHT22;61320;52.008;4.530;2023-03-17T14:22:46;18.95;50.27
73133;DHT22;61320;52.008;4.530;2023-03-17T14:25:17;19.00;50.05
73133;DHT22;61320;52.008;4.530;2023-03-17T14:27:47;18.98;50.46
73133;DHT22;61320;52.008;4.530;2023-03-17T14:30:26;18.92;50.68
73133;DHT22;61320;52.008;4.530;2023-03-17T14:33:01;18.94;51.27
73133;DHT22;61320;52.008;4.530;2023-03-17T14:35:35;18.95;51.73
73133;DHT22;61320;52.008;4.530;2023-03-17T14:38:21;18.92;50.68
73133;DHT22;61320;52.008;4.530;2023-03-17T14:40:49;18.96;51.24
73133;DHT22;61320;52.008;4.530;2023-03-17T14:43:15;19.00;51.11
73133;DHT22;61320;52.008;4.530;2023-03-17T14:45:51;19.02;50.89
73133;DHT22;61320;52.008;4.530;2023-03-17T14:48:29;19.02;50.73
73133;DHT22;61320;52.008;4.530;2023-03-17T14:50:59;18.99;51.35
73133;DHT22;61320;52.008;4.530;2023-03-17T14:53:31;18.91;50.95
73133;DHT22;61320;52.008;4.530;2023-03-17T14:55:59;18.87;50.68
73133;DHT22;61320;52.008;4.530;2023-03-17T14:58:45;18.79;51.29
73133;DHT22;61320;52.008;4.530;2023-03-17T15:01:36;18.76;51.35
73133;DHT22;61320;52.008;4.530;2023-03-17T15:04:16;18.76;51.24
73133;DHT22;61320;52.008;4.530;2023-03-17T15:06:51;18.76;51.30
73133;DHT22;61320;52.008;4.530;2023-03-17T15:11:54;18.76;51.06
73133;DHT22;61320;52.008;4.530;2023-03-17T15:14:27;18.75;51.66
73133;DHT22;61320;52.008;4.530;2023-03-17T15:16:55;18.73;51.32
73133;DHT22;61320;52.008;4.530;2023-03-17T15:19:50;18.79;51.59
73133;DHT22;61320;52.008;4.530;2023-03-17T15:27:44;18.78;51.48
73133;DHT22;61320;52.008;4.530;2023-03-17T15:30:11;18.81;51.63
73133;DHT22;61320;52.008;4.530;2023-03-17T15:32:37;18.76;51.72
73133;DHT22;61320;52.008;4.530;2023-03-17T15:35:04;18.73;51.92
73133;DHT22;61320;52.008;4.530;2023-03-17T15:37:32;18.75;51.65
73133;DHT22;61320;52.008;4.530;2023-03-17T15:39:59;18.76;51.94
73133;DHT22;61320;52.008;4.530;2023-03-17T15:42:28;18.78;51.92
73133;DHT22;61320;52.008;4.530;2023-03-17T15:44:55;18.76;51.97
73133;DHT22;61320;52.008;4.530;2023-03-17T15:47:25;18.79;51.82
73133;DHT22;61320;52.008;4.530;2023-03-17T15:49:57;18.78;52.30
73133;DHT22;61320;52.008;4.530;2023-03-17T15:52:25;18.79;52.26
73133;DHT22;61320;52.008;4.530;2023-03-17T15:54:53;18.71;52.68
73133;DHT22;61320;52.008;4.530;2023-03-17T15:57:19;18.72;52.73
73133;DHT22;61320;52.008;4.530;2023-03-17T15:59:45;18.68;53.14
73133;DHT22;61320;52.008;4.530;2023-03-17T16:02:31;18.62;53.13
73133;DHT22;61320;52.008;4.530;2023-03-17T16:04:59;18.57;52.70
73133;DHT22;61320;52.008;4.530;2023-03-17T16:07:27;18.48;52.89
73133;DHT22;61320;52.008;4.530;2023-03-17T16:09:55;18.43;53.14
73133;DHT22;61320;52.008;4.530;2023-03-17T16:12:21;18.30;53.20
73133;DHT22;61320;52.008;4.530;2023-03-17T16:14:46;18.20;53.91
73133;DHT22;61320;52.008;4.530;2023-03-17T16:19:45;18.07;54.23
73133;DHT22;61320;52.008;4.530;2023-03-17T16:22:40;18.10;54.80
73133;DHT22;61320;52.008;4.530;2023-03-17T16:25:26;18.03;54.91
73133;DHT22;61320;52.008;4.530;2023-03-17T16:27:58;18.04;55.59
73133;DHT22;61320;52.008;4.530;2023-03-17T16:30:24;18.01;55.13
73133;DHT22;61320;52.008;4.530;2023-03-17T16:32:52;18.03;55.29
73133;DHT22;61320;52.008;4.530;2023-03-17T16:35:23;18.03;55.16
73133;DHT22;61320;52.008;4.530;2023-03-17T16:37:49;18.01;55.75
73133;DHT22;61320;52.008;4.530;2023-03-17T16:40:23;17.96;55.66
73133;DHT22;61320;52.008;4.530;2023-03-17T16:42:49;17.89;55.37
73133;DHT22;61320;52.008;4.530;2023-03-17T16:45:35;17.89;56.43
73133;DHT22;61320;52.008;4.530;2023-03-17T16:48:02;17.86;56.19
73133;DHT22;61320;52.008;4.530;2023-03-17T16:50:32;17.85;56.38
73133;DHT22;61320;52.008;4.530;2023-03-17T16:52:58;17.85;56.70
73133;DHT22;61320;52.008;4.530;2023-03-17T16:55:26;17.87;57.44
73133;DHT22;61320;52.008;4.530;2023-03-17T16:57:56;17.85;57.85
73133;DHT22;61320;52.008;4.530;2023-03-17T17:00:27;17.85;58.12
73133;DHT22;61320;52.008;4.530;2023-03-17T17:02:53;17.80;57.70
73133;DHT22;61320;52.008;4.530;2023-03-17T17:05:24;17.78;57.72
73133;DHT22;61320;52.008;4.530;2023-03-17T17:07:51;17.73;57.95
73133;DHT22;61320;52.008;4.530;2023-03-17T17:10:20;17.66;57.17
73133;DHT22;61320;52.008;4.530;2023-03-17T17:12:47;17.65;57.21
73133;DHT22;61320;52.008;4.530;2023-03-17T17:15:22;17.58;57.44
73133;DHT22;61320;52.008;4.530;2023-03-17T17:17:50;17.53;58.11
73133;DHT22;61320;52.008;4.530;2023-03-17T17:20:24;17.52;58.66
73133;DHT22;61320;52.008;4.530;2023-03-17T17:22:53;17.48;59.04
73133;DHT22;61320;52.008;4.530;2023-03-17T17:25:19;17.43;59.44
73133;DHT22;61320;52.008;4.530;2023-03-17T17:27:45;17.41;59.58
73133;DHT22;61320;52.008;4.530;2023-03-17T17:30:15;17.41;59.73
73133;DHT22;61320;52.008;4.530;2023-03-17T17:32:41;17.36;59.73
73133;DHT22;61320;52.008;4.530;2023-03-17T17:35:07;17.31;59.88
73133;DHT22;61320;52.008;4.530;2023-03-17T17:37:33;17.28;60.11
73133;DHT22;61320;52.008;4.530;2023-03-17T17:39:59;17.24;59.95
73133;DHT22;61320;52.008;4.530;2023-03-17T17:42:25;17.17;59.89
73133;DHT22;61320;52.008;4.530;2023-03-17T17:44:51;17.20;59.79